sensor_id;sensor_type;location;lat;lon;timestamp;P1;durP1;ratioP1;P2;durP2;ratioP2
20729;SDS011;10526;50.850;12.928;2022-09-30T00:01:18;15.07;;;6.38;;
20729;SDS011;10526;50.850;12.928;2022-09-30T00:05:41;13.93;;;6.32;;
20729;SDS011;10526;50.850;12.928;2022-09-30T00:10:03;13.10;;;6.13;;
20729;SDS011;10526;50.850;12.928;2022-09-30T00:14:27;13.00;;;5.78;;
20729;SDS011;10526;50.850;12.928;2022-09-30T00:18:50;13.98;;;6.15;;
20729;SDS011;10526;50.850;12.928;2022-09-30T00:23:15;15.50;;;6.10;;
20729;SDS011;10526;50.850;12.928;2022-09-30T00:27:38;16.38;;;7.13;;
20729;SDS011;10526;50.850;12.928;2022-09-30T00:32:00;13.75;;;6.60;;
20729;SDS011;10526;50.850;12.928;2022-09-30T00:36:23;15.25;;;6.93;;
20729;SDS011;10526;50.850;12.928;2022-09-30T00:40:45;14.25;;;6.72;;
20729;SDS011;10526;50.850;12.928;2022-09-30T00:45:09;13.40;;;6.82;;
20729;SDS011;10526;50.850;12.928;2022-09-30T00:49:34;22.90;;;6.85;;
20729;SDS011;10526;50.850;12.928;2022-09-30T00:53:57;15.15;;;7.10;;
20729;SDS011;10526;50.850;12.928;2022-09-30T00:58:37;16.58;;;7.32;;
20729;SDS011;10526;50.850;12.928;2022-09-30T01:03:05;13.10;;;6.60;;
20729;SDS011;10526;50.850;12.928;2022-09-30T01:07:27;13.88;;;6.95;;
20729;SDS011;10526;50.850;12.928;2022-09-30T01:11:50;15.73;;;7.32;;
20729;SDS011;10526;50.850;12.928;2022-09-30T01:20:59;15.80;;;7.78;;
20729;SDS011;10526;50.850;12.928;2022-09-30T01:25:53;16.92;;;8.10;;
20729;SDS011;10526;50.850;12.928;2022-09-30T01:40:23;16.35;;;7.47;;
20729;SDS011;10526;50.850;12.928;2022-09-30T01:45:02;14.32;;;7.40;;
20729;SDS011;10526;50.850;12.928;2022-09-30T01:50:06;19.15;;;8.43;;
20729;SDS011;10526;50.850;12.928;2022-09-30T01:54:47;16.55;;;7.68;;
20729;SDS011;10526;50.850;12.928;2022-09-30T01:59:38;15.15;;;7.15;;
20729;SDS011;10526;50.850;12.928;2022-09-30T02:04:18;18.88;;;8.80;;
20729;SDS011;10526;50.850;12.928;2022-09-30T02:08:56;13.07;;;6.63;;
20729;SDS011;10526;50.850;12.928;2022-09-30T02:13:41;14.02;;;6.47;;
20729;SDS011;10526;50.850;12.928;2022-09-30T02:18:18;18.02;;;7.90;;
20729;SDS011;10526;50.850;12.928;2022-09-30T02:23:01;15.43;;;7.03;;
20729;SDS011;10526;50.850;12.928;2022-09-30T02:27:53;17.73;;;6.75;;
20729;SDS011;10526;50.850;12.928;2022-09-30T02:32:24;14.15;;;7.05;;
20729;SDS011;10526;50.850;12.928;2022-09-30T02:36:58;18.63;;;7.38;;
20729;SDS011;10526;50.850;12.928;2022-09-30T02:41:35;13.48;;;6.63;;
20729;SDS011;10526;50.850;12.928;2022-09-30T02:51:07;15.50;;;7.25;;
20729;SDS011;10526;50.850;12.928;2022-09-30T02:55:58;18.92;;;6.68;;
20729;SDS011;10526;50.850;12.928;2022-09-30T03:00:44;15.88;;;7.30;;
20729;SDS011;10526;50.850;12.928;2022-09-30T03:05:07;12.18;;;6.25;;
20729;SDS011;10526;50.850;12.928;2022-09-30T03:09:30;14.15;;;6.88;;
20729;SDS011;10526;50.850;12.928;2022-09-30T03:29:25;14.15;;;7.03;;
20729;SDS011;10526;50.850;12.928;2022-09-30T03:43:55;14.85;;;7.35;;
20729;SDS011;10526;50.850;12.928;2022-09-30T03:48:51;13.32;;;7.25;;
20729;SDS011;10526;50.850;12.928;2022-09-30T03:53:18;15.13;;;7.45;;
20729;SDS011;10526;50.850;12.928;2022-09-30T03:57:41;15.05;;;7.90;;
20729;SDS011;10526;50.850;12.928;2022-09-30T04:02:05;16.77;;;7.47;;
20729;SDS011;10526;50.850;12.928;2022-09-30T04:06:33;17.73;;;8.20;;
20729;SDS011;10526;50.850;12.928;2022-09-30T04:10:56;18.67;;;7.90;;
20729;SDS011;10526;50.850;12.928;2022-09-30T04:15:18;17.80;;;8.07;;
20729;SDS011;10526;50.850;12.928;2022-09-30T04:19:40;15.65;;;7.68;;
20729;SDS011;10526;50.850;12.928;2022-09-30T04:24:02;16.27;;;8.00;;
20729;SDS011;10526;50.850;12.928;2022-09-30T04:28:25;18.58;;;8.32;;
20729;SDS011;10526;50.850;12.928;2022-09-30T04:32:51;14.52;;;7.68;;
20729;SDS011;10526;50.850;12.928;2022-09-30T04:37:13;15.18;;;7.95;;
20729;SDS011;10526;50.850;12.928;2022-09-30T04:41:39;18.27;;;8.05;;
20729;SDS011;10526;50.850;12.928;2022-09-30T04:46:01;20.67;;;10.13;;
20729;SDS011;10526;50.850;12.928;2022-09-30T04:50:25;24.23;;;8.68;;
20729;SDS011;10526;50.850;12.928;2022-09-30T04:54:48;23.75;;;10.60;;
20729;SDS011;10526;50.850;12.928;2022-09-30T04:59:10;15.75;;;8.27;;
20729;SDS011;10526;50.850;12.928;2022-09-30T05:03:33;17.98;;;9.25;;
20729;SDS011;10526;50.850;12.928;2022-09-30T05:08:03;24.00;;;9.75;;
20729;SDS011;10526;50.850;12.928;2022-09-30T05:12:26;19.95;;;9.50;;
20729;SDS011;10526;50.850;12.928;2022-09-30T05:16:48;20.15;;;10.30;;
20729;SDS011;10526;50.850;12.928;2022-09-30T05:21:11;22.13;;;11.48;;
20729;SDS011;10526;50.850;12.928;2022-09-30T05:25:41;24.60;;;11.48;;
20729;SDS011;10526;50.850;12.928;2022-09-30T05:30:03;27.38;;;12.20;;
20729;SDS011;10526;50.850;12.928;2022-09-30T05:34:27;29.23;;;12.80;;
20729;SDS011;10526;50.850;12.928;2022-09-30T05:38:50;24.13;;;10.68;;
20729;SDS011;10526;50.850;12.928;2022-09-30T05:43:13;20.38;;;10.48;;
20729;SDS011;10526;50.850;12.928;2022-09-30T05:47:37;18.52;;;9.35;;
20729;SDS011;10526;50.850;12.928;2022-09-30T05:52:00;17.30;;;9.23;;
20729;SDS011;10526;50.850;12.928;2022-09-30T05:56:23;19.95;;;9.40;;
20729;SDS011;10526;50.850;12.928;2022-09-30T06:00:46;19.50;;;9.45;;
20729;SDS011;10526;50.850;12.928;2022-09-30T06:05:09;19.40;;;8.35;;
20729;SDS011;10526;50.850;12.928;2022-09-30T06:09:33;15.82;;;7.68;;
20729;SDS011;10526;50.850;12.928;2022-09-30T06:13:56;17.20;;;7.10;;
20729;SDS011;10526;50.850;12.928;2022-09-30T06:18:18;17.67;;;7.15;;
20729;SDS011;10526;50.850;12.928;2022-09-30T06:22:41;14.63;;;6.53;;
20729;SDS011;10526;50.850;12.928;2022-09-30T06:27:04;12.48;;;5.47;;
20729;SDS011;10526;50.850;12.928;2022-09-30T06:31:26;13.25;;;4.93;;
20729;SDS011;10526;50.850;12.928;2022-09-30T06:35:51;16.50;;;6.53;;
20729;SDS011;10526;50.850;12.928;2022-09-30T06:40:13;15.10;;;6.38;;
20729;SDS011;10526;50.850;12.928;2022-09-30T06:44:38;15.48;;;6.50;;
20729;SDS011;10526;50.850;12.928;2022-09-30T06:49:12;17.05;;;7.70;;
20729;SDS011;10526;50.850;12.928;2022-09-30T06:53:36;18.00;;;6.88;;
20729;SDS011;10526;50.850;12.928;2022-09-30T06:58:04;15.38;;;6.65;;
20729;SDS011;10526;50.850;12.928;2022-09-30T07:02:28;16.65;;;6.93;;
20729;SDS011;10526;50.850;12.928;2022-09-30T07:06:51;12.63;;;6.05;;
20729;SDS011;10526;50.850;12.928;2022-09-30T07:11:15;16.05;;;6.40;;
20729;SDS011;10526;50.850;12.928;2022-09-30T07:15:40;14.90;;;5.57;;
20729;SDS011;10526;50.850;12.928;2022-09-30T07:20:03;13.35;;;6.30;;
20729;SDS011;10526;50.850;12.928;2022-09-30T07:24:25;12.70;;;5.82;;
20729;SDS011;10526;50.850;12.928;2022-09-30T07:28:49;14.23;;;6.03;;
20729;SDS011;10526;50.850;12.928;2022-09-30T07:33:12;15.27;;;5.40;;
20729;SDS011;10526;50.850;12.928;2022-09-30T07:37:36;13.07;;;4.88;;
20729;SDS011;10526;50.850;12.928;2022-09-30T07:41:59;13.90;;;5.50;;
20729;SDS011;10526;50.850;12.928;2022-09-30T07:46:24;14.30;;;4.85;;
20729;SDS011;10526;50.850;12.928;2022-09-30T07:50:52;14.85;;;4.90;;
20729;SDS011;10526;50.850;12.928;2022-09-30T07:55:15;17.15;;;4.97;;
20729;SDS011;10526;50.850;12.928;2022-09-30T07:59:38;13.95;;;5.05;;
20729;SDS011;10526;50.850;12.928;2022-09-30T08:04:03;13.77;;;5.35;;
20729;SDS011;10526;50.850;12.928;2022-09-30T08:08:28;14.52;;;5.18;;
20729;SDS011;10526;50.850;12.928;2022-09-30T08:12:51;11.68;;;4.70;;
20729;SDS011;10526;50.850;12.928;2022-09-30T08:17:18;14.20;;;5.03;;
20729;SDS011;10526;50.850;12.928;2022-09-30T08:21:41;14.65;;;5.25;;
20729;SDS011;10526;50.850;12.928;2022-09-30T08:26:05;14.25;;;4.68;;
20729;SDS011;10526;50.850;12.928;2022-09-30T08:30:33;11.23;;;4.30;;
20729;SDS011;10526;50.850;12.928;2022-09-30T08:34:56;9.80;;;3.88;;
20729;SDS011;10526;50.850;12.928;2022-09-30T08:39:18;16.15;;;4.40;;
20729;SDS011;10526;50.850;12.928;2022-09-30T08:44:29;9.15;;;3.92;;
20729;SDS011;10526;50.850;12.928;2022-09-30T08:54:01;10.15;;;3.80;;
20729;SDS011;10526;50.850;12.928;2022-09-30T08:58:34;13.32;;;4.18;;
20729;SDS011;10526;50.850;12.928;2022-09-30T09:03:01;12.57;;;4.10;;
20729;SDS011;10526;50.850;12.928;2022-09-30T09:16:41;11.30;;;3.65;;
20729;SDS011;10526;50.850;12.928;2022-09-30T09:26:10;12.98;;;3.03;;
20729;SDS011;10526;50.850;12.928;2022-09-30T09:30:46;9.10;;;2.80;;
20729;SDS011;10526;50.850;12.928;2022-09-30T09:35:14;5.30;;;2.60;;
20729;SDS011;10526;50.850;12.928;2022-09-30T09:40:14;10.80;;;3.13;;
20729;SDS011;10526;50.850;12.928;2022-09-30T09:45:15;10.10;;;2.72;;
20729;SDS011;10526;50.850;12.928;2022-09-30T09:49:54;7.78;;;2.90;;
20729;SDS011;10526;50.850;12.928;2022-09-30T09:54:21;6.32;;;2.45;;
20729;SDS011;10526;50.850;12.928;2022-09-30T10:03:40;7.38;;;2.53;;
20729;SDS011;10526;50.850;12.928;2022-09-30T10:08:10;7.72;;;2.28;;
20729;SDS011;10526;50.850;12.928;2022-09-30T10:12:41;6.03;;;2.40;;
20729;SDS011;10526;50.850;12.928;2022-09-30T10:17:07;3.75;;;2.15;;
20729;SDS011;10526;50.850;12.928;2022-09-30T10:21:46;6.75;;;2.33;;
20729;SDS011;10526;50.850;12.928;2022-09-30T10:35:15;4.80;;;2.13;;
20729;SDS011;10526;50.850;12.928;2022-09-30T10:39:43;7.78;;;2.30;;
20729;SDS011;10526;50.850;12.928;2022-09-30T10:44:19;4.75;;;2.10;;
20729;SDS011;10526;50.850;12.928;2022-09-30T10:48:43;6.30;;;2.50;;
20729;SDS011;10526;50.850;12.928;2022-09-30T10:53:14;8.55;;;3.05;;
20729;SDS011;10526;50.850;12.928;2022-09-30T10:57:47;10.45;;;3.88;;
20729;SDS011;10526;50.850;12.928;2022-09-30T11:02:24;9.52;;;3.60;;
20729;SDS011;10526;50.850;12.928;2022-09-30T11:07:02;6.75;;;2.97;;
20729;SDS011;10526;50.850;12.928;2022-09-30T11:11:54;7.95;;;3.42;;
20729;SDS011;10526;50.850;12.928;2022-09-30T11:16:33;7.28;;;3.00;;
20729;SDS011;10526;50.850;12.928;2022-09-30T11:21:08;11.25;;;3.55;;
20729;SDS011;10526;50.850;12.928;2022-09-30T11:25:53;9.80;;;3.40;;
20729;SDS011;10526;50.850;12.928;2022-09-30T11:50:29;5.28;;;2.00;;
20729;SDS011;10526;50.850;12.928;2022-09-30T12:00:36;8.07;;;2.75;;
20729;SDS011;10526;50.850;12.928;2022-09-30T12:04:38;8.85;;;3.60;;
20729;SDS011;10526;50.850;12.928;2022-09-30T12:09:11;5.97;;;2.40;;
20729;SDS011;10526;50.850;12.928;2022-09-30T12:13:48;8.13;;;2.33;;
20729;SDS011;10526;50.850;12.928;2022-09-30T12:18:20;6.68;;;2.60;;
20729;SDS011;10526;50.850;12.928;2022-09-30T12:27:35;6.95;;;2.40;;
20729;SDS011;10526;50.850;12.928;2022-09-30T12:52:23;13.85;;;2.47;;
20729;SDS011;10526;50.850;12.928;2022-09-30T12:56:58;5.68;;;2.40;;
20729;SDS011;10526;50.850;12.928;2022-09-30T13:01:24;7.03;;;2.35;;
20729;SDS011;10526;50.850;12.928;2022-09-30T13:05:54;5.15;;;2.50;;
20729;SDS011;10526;50.850;12.928;2022-09-30T13:10:27;3.97;;;1.90;;
20729;SDS011;10526;50.850;12.928;2022-09-30T13:15:20;7.60;;;3.00;;
20729;SDS011;10526;50.850;12.928;2022-09-30T13:19:50;4.50;;;2.05;;
20729;SDS011;10526;50.850;12.928;2022-09-30T13:24:15;6.40;;;2.20;;
20729;SDS011;10526;50.850;12.928;2022-09-30T13:28:37;7.22;;;2.50;;
20729;SDS011;10526;50.850;12.928;2022-09-30T13:37:33;11.68;;;2.35;;
20729;SDS011;10526;50.850;12.928;2022-09-30T13:46:47;6.25;;;2.40;;
20729;SDS011;10526;50.850;12.928;2022-09-30T13:51:14;10.40;;;2.47;;
20729;SDS011;10526;50.850;12.928;2022-09-30T13:55:42;6.20;;;2.15;;
20729;SDS011;10526;50.850;12.928;2022-09-30T14:00:15;12.10;;;2.75;;
20729;SDS011;10526;50.850;12.928;2022-09-30T14:24:25;8.25;;;2.70;;
20729;SDS011;10526;50.850;12.928;2022-09-30T14:33:36;6.60;;;2.63;;
20729;SDS011;10526;50.850;12.928;2022-09-30T14:38:04;6.43;;;2.75;;
20729;SDS011;10526;50.850;12.928;2022-09-30T14:42:40;6.13;;;2.60;;
20729;SDS011;10526;50.850;12.928;2022-09-30T14:47:05;7.18;;;2.90;;
20729;SDS011;10526;50.850;12.928;2022-09-30T14:51:28;9.82;;;2.88;;
20729;SDS011;10526;50.850;12.928;2022-09-30T14:55:59;7.10;;;3.30;;
20729;SDS011;10526;50.850;12.928;2022-09-30T15:00:28;5.90;;;3.17;;
20729;SDS011;10526;50.850;12.928;2022-09-30T15:04:53;10.40;;;3.00;;
20729;SDS011;10526;50.850;12.928;2022-09-30T15:09:24;7.35;;;3.05;;
20729;SDS011;10526;50.850;12.928;2022-09-30T15:14:05;4.68;;;2.53;;
20729;SDS011;10526;50.850;12.928;2022-09-30T15:18:44;8.73;;;3.10;;
20729;SDS011;10526;50.850;12.928;2022-09-30T15:27:40;7.97;;;2.72;;
20729;SDS011;10526;50.850;12.928;2022-09-30T15:32:13;8.13;;;3.28;;
20729;SDS011;10526;50.850;12.928;2022-09-30T15:36:43;18.45;;;10.73;;
20729;SDS011;10526;50.850;12.928;2022-09-30T15:41:12;4.63;;;2.75;;
20729;SDS011;10526;50.850;12.928;2022-09-30T15:45:38;6.15;;;2.90;;
20729;SDS011;10526;50.850;12.928;2022-09-30T16:00:11;7.28;;;2.95;;
20729;SDS011;10526;50.850;12.928;2022-09-30T16:04:59;9.52;;;3.15;;
20729;SDS011;10526;50.850;12.928;2022-09-30T16:13:55;10.95;;;4.75;;
20729;SDS011;10526;50.850;12.928;2022-09-30T16:18:23;7.53;;;3.08;;
20729;SDS011;10526;50.850;12.928;2022-09-30T16:22:54;7.85;;;3.75;;
20729;SDS011;10526;50.850;12.928;2022-09-30T16:27:23;12.88;;;4.20;;
20729;SDS011;10526;50.850;12.928;2022-09-30T16:31:51;9.63;;;3.85;;
20729;SDS011;10526;50.850;12.928;2022-09-30T16:36:17;10.95;;;4.03;;
20729;SDS011;10526;50.850;12.928;2022-09-30T16:40:39;9.52;;;3.53;;
20729;SDS011;10526;50.850;12.928;2022-09-30T16:45:02;8.73;;;3.30;;
20729;SDS011;10526;50.850;12.928;2022-09-30T16:49:24;11.43;;;3.92;;
20729;SDS011;10526;50.850;12.928;2022-09-30T16:53:47;11.35;;;3.30;;
20729;SDS011;10526;50.850;12.928;2022-09-30T16:58:09;8.68;;;3.20;;
20729;SDS011;10526;50.850;12.928;2022-09-30T17:02:33;9.20;;;3.30;;
20729;SDS011;10526;50.850;12.928;2022-09-30T17:06:55;13.57;;;3.40;;
20729;SDS011;10526;50.850;12.928;2022-09-30T17:11:21;10.40;;;4.43;;
20729;SDS011;10526;50.850;12.928;2022-09-30T17:15:51;15.82;;;5.68;;
20729;SDS011;10526;50.850;12.928;2022-09-30T17:20:13;19.15;;;9.70;;
20729;SDS011;10526;50.850;12.928;2022-09-30T17:24:35;11.68;;;5.10;;
20729;SDS011;10526;50.850;12.928;2022-09-30T17:28:58;15.48;;;4.95;;
20729;SDS011;10526;50.850;12.928;2022-09-30T17:33:41;10.60;;;4.78;;
20729;SDS011;10526;50.850;12.928;2022-09-30T17:38:07;12.13;;;5.20;;
20729;SDS011;10526;50.850;12.928;2022-09-30T17:42:31;11.27;;;5.22;;
20729;SDS011;10526;50.850;12.928;2022-09-30T17:47:18;9.95;;;4.68;;
20729;SDS011;10526;50.850;12.928;2022-09-30T17:51:41;13.45;;;4.25;;
20729;SDS011;10526;50.850;12.928;2022-09-30T17:56:04;11.43;;;4.53;;
20729;SDS011;10526;50.850;12.928;2022-09-30T18:00:35;9.20;;;4.80;;
20729;SDS011;10526;50.850;12.928;2022-09-30T18:04:57;10.50;;;4.78;;
20729;SDS011;10526;50.850;12.928;2022-09-30T18:09:20;11.10;;;5.30;;
20729;SDS011;10526;50.850;12.928;2022-09-30T18:13:43;14.23;;;6.22;;
20729;SDS011;10526;50.850;12.928;2022-09-30T18:18:14;14.45;;;6.18;;
20729;SDS011;10526;50.850;12.928;2022-09-30T18:22:37;19.85;;;8.57;;
20729;SDS011;10526;50.850;12.928;2022-09-30T18:27:00;16.90;;;7.93;;
20729;SDS011;10526;50.850;12.928;2022-09-30T18:31:23;16.67;;;7.90;;
20729;SDS011;10526;50.850;12.928;2022-09-30T18:35:49;13.90;;;5.55;;
20729;SDS011;10526;50.850;12.928;2022-09-30T18:40:12;14.75;;;6.15;;
20729;SDS011;10526;50.850;12.928;2022-09-30T18:44:38;12.02;;;6.28;;
20729;SDS011;10526;50.850;12.928;2022-09-30T18:49:01;16.23;;;7.60;;
20729;SDS011;10526;50.850;12.928;2022-09-30T18:53:25;12.52;;;6.03;;
20729;SDS011;10526;50.850;12.928;2022-09-30T18:57:54;16.75;;;7.35;;
20729;SDS011;10526;50.850;12.928;2022-09-30T19:02:18;19.17;;;6.50;;
20729;SDS011;10526;50.850;12.928;2022-09-30T19:06:41;14.10;;;6.40;;
20729;SDS011;10526;50.850;12.928;2022-09-30T19:11:15;15.52;;;7.60;;
20729;SDS011;10526;50.850;12.928;2022-09-30T19:15:38;15.73;;;7.18;;
20729;SDS011;10526;50.850;12.928;2022-09-30T19:20:02;13.52;;;6.70;;
20729;SDS011;10526;50.850;12.928;2022-09-30T19:24:26;12.82;;;6.93;;
20729;SDS011;10526;50.850;12.928;2022-09-30T19:28:48;16.27;;;7.28;;
20729;SDS011;10526;50.850;12.928;2022-09-30T19:33:11;15.98;;;7.95;;
20729;SDS011;10526;50.850;12.928;2022-09-30T19:37:33;15.80;;;7.28;;
20729;SDS011;10526;50.850;12.928;2022-09-30T19:41:55;18.10;;;8.18;;
20729;SDS011;10526;50.850;12.928;2022-09-30T19:46:24;16.35;;;8.02;;
20729;SDS011;10526;50.850;12.928;2022-09-30T19:50:46;15.15;;;8.05;;
20729;SDS011;10526;50.850;12.928;2022-09-30T19:55:09;17.13;;;8.82;;
20729;SDS011;10526;50.850;12.928;2022-09-30T19:59:37;16.40;;;8.07;;
20729;SDS011;10526;50.850;12.928;2022-09-30T20:03:59;20.13;;;9.25;;
20729;SDS011;10526;50.850;12.928;2022-09-30T20:08:25;20.70;;;10.48;;
20729;SDS011;10526;50.850;12.928;2022-09-30T20:12:52;17.92;;;8.95;;
20729;SDS011;10526;50.850;12.928;2022-09-30T20:17:14;19.45;;;9.65;;
20729;SDS011;10526;50.850;12.928;2022-09-30T20:21:37;17.83;;;9.27;;
20729;SDS011;10526;50.850;12.928;2022-09-30T20:26:02;18.90;;;10.10;;
20729;SDS011;10526;50.850;12.928;2022-09-30T20:30:26;18.52;;;10.40;;
20729;SDS011;10526;50.850;12.928;2022-09-30T20:34:50;20.00;;;10.65;;
20729;SDS011;10526;50.850;12.928;2022-09-30T20:39:12;21.02;;;11.18;;
20729;SDS011;10526;50.850;12.928;2022-09-30T20:43:34;16.70;;;9.13;;
20729;SDS011;10526;50.850;12.928;2022-09-30T20:47:57;19.23;;;9.93;;
20729;SDS011;10526;50.850;12.928;2022-09-30T20:52:19;25.52;;;9.93;;
20729;SDS011;10526;50.850;12.928;2022-09-30T20:56:41;20.13;;;9.43;;
20729;SDS011;10526;50.850;12.928;2022-09-30T21:01:24;15.93;;;8.73;;
20729;SDS011;10526;50.850;12.928;2022-09-30T21:05:50;17.25;;;9.80;;
20729;SDS011;10526;50.850;12.928;2022-09-30T21:10:13;21.42;;;9.60;;
20729;SDS011;10526;50.850;12.928;2022-09-30T21:14:38;21.10;;;10.30;;
20729;SDS011;10526;50.850;12.928;2022-09-30T21:19:00;17.27;;;9.30;;
20729;SDS011;10526;50.850;12.928;2022-09-30T21:23:23;17.30;;;9.50;;
20729;SDS011;10526;50.850;12.928;2022-09-30T21:27:47;16.80;;;9.77;;
20729;SDS011;10526;50.850;12.928;2022-09-30T21:32:10;19.45;;;9.55;;
20729;SDS011;10526;50.850;12.928;2022-09-30T21:36:32;18.05;;;9.95;;
20729;SDS011;10526;50.850;12.928;2022-09-30T21:40:58;20.38;;;10.73;;
20729;SDS011;10526;50.850;12.928;2022-09-30T21:45:22;19.15;;;10.30;;
20729;SDS011;10526;50.850;12.928;2022-09-30T21:49:45;19.10;;;10.32;;
20729;SDS011;10526;50.850;12.928;2022-09-30T21:54:07;18.90;;;11.13;;
20729;SDS011;10526;50.850;12.928;2022-09-30T21:58:32;19.52;;;11.07;;
20729;SDS011;10526;50.850;12.928;2022-09-30T22:02:54;21.13;;;12.52;;
20729;SDS011;10526;50.850;12.928;2022-09-30T22:07:18;19.98;;;11.57;;
20729;SDS011;10526;50.850;12.928;2022-09-30T22:11:44;20.70;;;11.32;;
20729;SDS011;10526;50.850;12.928;2022-09-30T22:16:08;23.45;;;11.98;;
20729;SDS011;10526;50.850;12.928;2022-09-30T22:20:32;21.17;;;11.85;;
20729;SDS011;10526;50.850;12.928;2022-09-30T22:24:54;21.80;;;11.45;;
20729;SDS011;10526;50.850;12.928;2022-09-30T22:29:17;20.40;;;11.57;;
20729;SDS011;10526;50.850;12.928;2022-09-30T22:33:39;21.02;;;12.68;;
20729;SDS011;10526;50.850;12.928;2022-09-30T22:38:20;22.20;;;11.25;;
20729;SDS011;10526;50.850;12.928;2022-09-30T22:42:42;23.10;;;12.35;;
20729;SDS011;10526;50.850;12.928;2022-09-30T22:47:08;18.15;;;10.57;;
20729;SDS011;10526;50.850;12.928;2022-09-30T22:51:31;23.27;;;11.63;;
20729;SDS011;10526;50.850;12.928;2022-09-30T22:55:54;20.85;;;10.60;;
20729;SDS011;10526;50.850;12.928;2022-09-30T23:00:16;19.95;;;11.23;;
20729;SDS011;10526;50.850;12.928;2022-09-30T23:04:39;22.80;;;12.98;;
20729;SDS011;10526;50.850;12.928;2022-09-30T23:09:03;20.23;;;11.82;;
20729;SDS011;10526;50.850;12.928;2022-09-30T23:13:29;21.48;;;12.70;;
20729;SDS011;10526;50.850;12.928;2022-09-30T23:17:55;23.45;;;12.80;;
20729;SDS011;10526;50.850;12.928;2022-09-30T23:22:17;23.33;;;12.68;;
20729;SDS011;10526;50.850;12.928;2022-09-30T23:26:40;25.23;;;13.00;;
20729;SDS011;10526;50.850;12.928;2022-09-30T23:31:04;26.55;;;13.75;;
20729;SDS011;10526;50.850;12.928;2022-09-30T23:35:29;23.10;;;12.10;;
20729;SDS011;10526;50.850;12.928;2022-09-30T23:39:52;22.90;;;11.88;;
20729;SDS011;10526;50.850;12.928;2022-09-30T23:44:14;21.83;;;11.32;;
20729;SDS011;10526;50.850;12.928;2022-09-30T23:48:39;20.63;;;11.40;;
20729;SDS011;10526;50.850;12.928;2022-09-30T23:53:02;23.08;;;11.45;;
20729;SDS011;10526;50.850;12.928;2022-09-30T23:57:25;24.23;;;10.77;;
